createdAt,value
2023-05-22T00:01:05.059Z,99.90
2023-05-22T00:06:15.326Z,99.90
2023-05-22T00:11:20.362Z,99.90
2023-05-22T00:16:27.556Z,99.90
2023-05-22T00:21:35.047Z,99.90
2023-05-22T00:26:38.120Z,99.90
2023-05-22T00:31:42.146Z,99.90
2023-05-22T00:36:57.847Z,99.90
2023-05-22T00:42:00.676Z,99.90
2023-05-22T00:47:05.278Z,99.90
2023-05-22T00:52:11.352Z,99.90
2023-05-22T00:57:17.579Z,99.90
2023-05-22T01:02:43.867Z,99.90
2023-05-22T01:07:55.183Z,99.90
2023-05-22T01:13:22.196Z,99.90
2023-05-22T01:18:37.449Z,99.90
2023-05-22T01:24:17.827Z,99.90
2023-05-22T01:29:43.191Z,99.90
2023-05-22T01:34:51.925Z,99.90
2023-05-22T01:39:56.584Z,99.90
2023-05-22T01:45:03.134Z,99.90
2023-05-22T01:50:08.723Z,99.90
2023-05-22T01:55:20.543Z,99.90
2023-05-22T02:00:24.834Z,99.90
2023-05-22T02:05:33.054Z,99.90
2023-05-22T02:10:38.539Z,99.90
2023-05-22T02:15:42.305Z,99.90
2023-05-22T02:20:46.779Z,99.90
2023-05-22T02:25:49.269Z,99.90
2023-05-22T02:30:52.089Z,99.90
2023-05-22T02:35:55.400Z,99.90
2023-05-22T02:41:04.641Z,99.90
2023-05-22T02:46:09.766Z,99.90
2023-05-22T02:51:13.993Z,99.90
2023-05-22T03:01:45.168Z,99.90
2023-05-22T03:06:50.473Z,99.90
2023-05-22T03:11:56.706Z,99.90
2023-05-22T03:17:00.370Z,99.90
2023-05-22T03:22:02.928Z,99.90
2023-05-22T03:27:06.149Z,99.90
2023-05-22T03:32:15.368Z,99.90
2023-05-22T03:37:17.859Z,99.90
2023-05-22T03:42:22.957Z,99.90
2023-05-22T03:47:36.949Z,99.90
2023-05-22T03:52:42.224Z,99.90
2023-05-22T03:57:49.434Z,99.90
2023-05-22T04:03:00.627Z,99.90
2023-05-22T04:08:03.234Z,99.90
2023-05-22T04:13:10.684Z,99.90
2023-05-22T04:18:18.751Z,99.90
2023-05-22T04:23:34.438Z,99.90
2023-05-22T04:28:51.515Z,99.90
2023-05-22T04:33:55.080Z,99.90
2023-05-22T04:39:18.563Z,99.90
2023-05-22T04:44:27.296Z,99.90
2023-05-22T04:49:35.656Z,99.90
2023-05-22T04:55:00.915Z,99.90
2023-05-22T05:00:30.115Z,99.90
2023-05-22T05:05:38.848Z,99.90
2023-05-22T05:10:42.188Z,99.90
2023-05-22T05:15:59.270Z,99.90
2023-05-22T05:21:09.347Z,99.90
2023-05-22T05:26:37.076Z,99.90
2023-05-22T05:37:39.583Z,99.90
2023-05-22T05:43:13.874Z,99.90
2023-05-22T05:48:21.613Z,99.90
2023-05-22T05:53:54.316Z,99.90
2023-05-22T05:59:11.839Z,99.90
2023-05-22T06:04:58.302Z,99.90
2023-05-22T06:10:23.446Z,99.90
2023-05-22T06:26:45.994Z,99.90
2023-05-22T06:32:02.739Z,99.90
2023-05-22T06:43:07.815Z,99.90
2023-05-22T06:48:22.472Z,99.90
2023-05-22T06:53:43.329Z,99.90
2023-05-22T06:58:50.512Z,99.90
2023-05-22T07:03:54.454Z,99.90
2023-05-22T07:09:11.842Z,99.90
2023-05-22T07:14:15.564Z,99.90
2023-05-22T07:19:19.451Z,99.90
2023-05-22T07:24:52.586Z,99.90
2023-05-22T07:30:16.292Z,99.90
2023-05-22T07:35:21.205Z,99.90
2023-05-22T07:40:26.579Z,99.90
2023-05-22T07:45:31.490Z,99.90
2023-05-22T07:50:36.945Z,99.90
2023-05-22T07:55:42.912Z,99.90
2023-05-22T08:00:51.340Z,99.90
2023-05-22T08:05:54.207Z,99.90
2023-05-22T08:11:04.023Z,99.90
2023-05-22T08:16:24.355Z,99.90
2023-05-22T08:21:28.820Z,99.90
2023-05-22T08:26:32.207Z,99.90
2023-05-22T08:31:44.818Z,99.90
2023-05-22T08:36:47.329Z,99.90
2023-05-22T08:41:53.650Z,99.90
2023-05-22T08:47:26.854Z,99.90
2023-05-22T08:52:50.699Z,99.90
2023-05-22T08:57:54.866Z,99.90
2023-05-22T09:02:58.243Z,99.90
2023-05-22T09:08:15.916Z,99.90
2023-05-22T09:13:29.830Z,99.90
2023-05-22T09:18:32.392Z,99.90
2023-05-22T09:23:38.797Z,99.90
2023-05-22T09:28:41.115Z,99.90
2023-05-22T09:33:45.120Z,99.90
2023-05-22T09:38:47.978Z,99.90
2023-05-22T09:43:51.145Z,99.90
2023-05-22T09:48:55.418Z,99.90
2023-05-22T09:54:06.416Z,99.90
2023-05-22T09:59:10.048Z,99.90
2023-05-22T10:04:19.098Z,99.90
2023-05-22T10:09:33.024Z,99.90
2023-05-22T10:14:36.730Z,99.90
2023-05-22T10:19:42.838Z,99.40
2023-05-22T10:24:48.324Z,99.90
2023-05-22T10:30:08.372Z,99.90
2023-05-22T10:35:25.009Z,99.60
2023-05-22T10:40:32.074Z,99.40
2023-05-22T10:45:37.101Z,99.60
2023-05-22T10:50:40.707Z,99.50
2023-05-22T10:55:54.270Z,98.40
2023-05-22T11:01:18.499Z,98.70
2023-05-22T11:06:43.512Z,98.70
2023-05-22T11:11:47.059Z,98.50
2023-05-22T11:16:53.320Z,98.30
2023-05-22T11:22:01.454Z,98.30
2023-05-22T11:27:07.957Z,98.30
2023-05-22T11:32:15.738Z,97.30
2023-05-22T11:37:19.151Z,97.80
2023-05-22T11:42:21.524Z,96.80
2023-05-22T11:47:25.282Z,98.00
2023-05-22T11:52:33.541Z,98.70
2023-05-22T11:57:38.658Z,98.60
2023-05-22T12:02:50.005Z,97.80
2023-05-22T12:07:52.807Z,98.10
2023-05-22T12:12:55.197Z,96.50
2023-05-22T12:17:57.786Z,97.10
2023-05-22T12:23:05.728Z,95.60
2023-05-22T12:28:07.913Z,96.50
2023-05-22T12:33:14.976Z,97.60
2023-05-22T12:38:20.242Z,96.90
2023-05-22T12:43:25.218Z,96.60
2023-05-22T12:48:27.529Z,97.00
2023-05-22T12:53:33.715Z,97.00
2023-05-22T12:58:37.751Z,98.70
2023-05-22T13:03:40.225Z,98.70
2023-05-22T13:08:51.065Z,98.40
2023-05-22T13:13:55.216Z,99.00
2023-05-22T13:18:57.552Z,99.20
2023-05-22T13:24:00.269Z,99.20
2023-05-22T13:29:02.757Z,99.60
2023-05-22T13:34:07.346Z,98.90
2023-05-22T13:39:09.600Z,99.70
2023-05-22T13:44:11.969Z,99.10
2023-05-22T13:49:14.823Z,98.70
2023-05-22T13:54:19.321Z,99.50
2023-05-22T13:59:22.408Z,99.90
2023-05-22T14:04:24.864Z,99.30
2023-05-22T14:09:27.514Z,99.50
2023-05-22T14:14:36.454Z,99.50
2023-05-22T14:19:39.453Z,99.50
2023-05-22T14:24:42.145Z,99.90
2023-05-22T14:29:44.628Z,99.90
2023-05-22T14:34:47.061Z,99.00
2023-05-22T14:39:51.128Z,99.50
2023-05-22T14:44:53.330Z,99.30
2023-05-22T14:50:03.135Z,99.20
2023-05-22T14:55:18.286Z,99.40
2023-05-22T15:00:20.824Z,99.90
2023-05-22T15:05:23.353Z,99.90
2023-05-22T15:10:26.282Z,99.90
2023-05-22T15:15:28.733Z,99.90
2023-05-22T15:20:33.670Z,99.90
2023-05-22T15:25:59.216Z,99.90
2023-05-22T15:31:03.149Z,99.90
2023-05-22T15:36:06.576Z,99.90
2023-05-22T15:41:08.835Z,99.90
2023-05-22T15:46:14.507Z,99.90
2023-05-22T15:51:21.344Z,99.90
2023-05-22T15:56:27.518Z,99.90
2023-05-22T16:01:30.837Z,99.90
2023-05-22T16:06:33.206Z,99.30
2023-05-22T16:11:35.918Z,99.20
2023-05-22T16:16:38.191Z,99.60
2023-05-22T16:21:40.610Z,99.40
2023-05-22T16:26:43.162Z,99.70
2023-05-22T16:31:46.087Z,98.70
2023-05-22T16:36:50.394Z,99.10
2023-05-22T16:41:54.081Z,99.30
2023-05-22T16:46:56.591Z,99.50
2023-05-22T16:51:58.901Z,98.60
2023-05-22T16:57:01.165Z,99.10
2023-05-22T17:02:06.887Z,98.50
2023-05-22T17:07:09.059Z,97.80
2023-05-22T17:12:11.536Z,98.20
2023-05-22T17:17:15.002Z,98.40
2023-05-22T17:22:17.837Z,98.40
2023-05-22T17:27:34.381Z,98.10
2023-05-22T17:32:38.220Z,98.90
2023-05-22T17:37:40.812Z,98.90
2023-05-22T17:42:44.984Z,99.60
2023-05-22T17:47:50.326Z,99.20
2023-05-22T17:52:52.660Z,98.90
2023-05-22T17:57:55.065Z,99.90
2023-05-22T18:02:57.464Z,99.90
2023-05-22T18:08:00.833Z,99.70
2023-05-22T18:13:03.136Z,99.90
2023-05-22T18:18:05.626Z,99.90
2023-05-22T18:23:07.934Z,99.90
2023-05-22T18:28:10.238Z,99.90
2023-05-22T18:33:12.732Z,99.90
2023-05-22T18:38:15.167Z,99.90
2023-05-22T18:43:17.447Z,99.90
2023-05-22T18:48:20.420Z,99.90
2023-05-22T18:53:30.300Z,99.90
2023-05-22T18:58:32.531Z,99.90
2023-05-22T19:03:35.011Z,99.90
2023-05-22T19:08:37.200Z,99.90
2023-05-22T19:13:41.285Z,99.90
2023-05-22T19:18:43.545Z,99.90
2023-05-22T19:23:46.163Z,99.90
2023-05-22T19:28:48.434Z,99.90
2023-05-22T19:33:50.608Z,99.90
2023-05-22T19:38:56.277Z,99.90
2023-05-22T19:43:59.045Z,99.90
2023-05-22T19:49:01.492Z,99.90
2023-05-22T19:54:05.190Z,99.90
2023-05-22T19:59:15.975Z,99.90
2023-05-22T20:04:18.257Z,99.90
2023-05-22T20:09:23.918Z,99.90
2023-05-22T20:14:26.160Z,99.90
2023-05-22T20:19:28.685Z,99.90
2023-05-22T20:24:33.608Z,99.90
2023-05-22T20:29:43.222Z,99.90
2023-05-22T20:34:50.176Z,99.90
2023-05-22T20:39:52.376Z,99.90
2023-05-22T20:44:56.246Z,99.90
2023-05-22T20:50:06.368Z,99.90
2023-05-22T20:55:17.722Z,99.90
2023-05-22T21:00:20.144Z,99.90
2023-05-22T21:05:24.767Z,99.90
2023-05-22T21:10:27.299Z,99.90
2023-05-22T21:20:47.823Z,99.90
2023-05-22T21:25:51.664Z,99.90
2023-05-22T21:30:54.191Z,99.90
2023-05-22T21:35:56.529Z,99.90
2023-05-22T21:40:59.065Z,99.90
2023-05-22T21:46:02.216Z,99.90
2023-05-22T21:51:05.080Z,99.90
2023-05-22T21:56:08.317Z,99.90
2023-05-22T22:01:17.688Z,99.90
2023-05-22T22:06:19.837Z,99.90
2023-05-22T22:11:23.454Z,99.90
2023-05-22T22:16:26.220Z,99.90
2023-05-22T22:21:28.971Z,99.90
2023-05-22T22:26:33.107Z,99.90
2023-05-22T22:31:35.867Z,99.90
2023-05-22T22:36:38.104Z,99.90
2023-05-22T22:41:40.333Z,99.90
2023-05-22T22:46:42.965Z,99.90
2023-05-22T22:51:45.186Z,99.90
2023-05-22T22:56:49.482Z,99.90
2023-05-22T23:01:51.775Z,99.90
2023-05-22T23:06:54.199Z,99.90
2023-05-22T23:11:56.403Z,99.90
2023-05-22T23:16:58.605Z,99.90
2023-05-22T23:22:00.857Z,99.90
2023-05-22T23:27:03.496Z,99.90
2023-05-22T23:32:06.074Z,99.90
2023-05-22T23:37:08.614Z,99.90
2023-05-22T23:42:11.020Z,99.90
2023-05-22T23:47:13.492Z,99.90
2023-05-22T23:52:16.138Z,99.90
2023-05-22T23:57:18.557Z,99.90
